This is the latest recevied weather packets stored in our database for station/object KB1QVF. If no packets are shown the sender has not sent any weather packets the latest 10 day(s).
| Time | Temp. | Humidity | Pressure | Rain* | Wind** | Luminosity | Snow |
|---|---|---|---|---|---|---|---|
| 1777231865 | 16.67° C | 40% | 1021.3 hPa | 0 mm | - | 605 W/m² | - |
| 1777231561 | 17.78° C | 33% | 1021.4 hPa | 0 mm | - | 617 W/m² | - |
| 1777231258 | 17.22° C | 37% | 1021.4 hPa | 0 mm | - | 629 W/m² | - |
| 1777230954 | 16.67° C | 39% | 1021.5 hPa | 0 mm | - | 640 W/m² | - |
| 1777230650 | 15.56° C | 38% | 1021.7 hPa | 0 mm | - | 650 W/m² | - |
| 1777230345 | 15° C | 36% | 1021.7 hPa | 0 mm | - | 659 W/m² | - |
| 1777230042 | 15° C | 38% | 1021.8 hPa | 0 mm | - | 669 W/m² | - |
| 1777229739 | 15° C | 36% | 1021.6 hPa | 0 mm | - | 679 W/m² | - |
| 1777229436 | 16.67° C | 33% | 1021.8 hPa | 0 mm | - | 688 W/m² | - |
| 1777229132 | 15.56° C | 40% | 1021.8 hPa | 0 mm | - | 697 W/m² | - |
| 1777228830 | 16.11° C | 35% | 1021.8 hPa | 0 mm | - | 706 W/m² | - |
| 1777228525 | 15.56° C | 37% | 1021.9 hPa | 0 mm | - | 714 W/m² | - |
| 1777228222 | 14.44° C | 37% | 1022 hPa | 0 mm | - | 718 W/m² | - |
| 1777227921 | 15.56° C | 35% | 1022 hPa | 0 mm | - | 727 W/m² | - |
| 1777227616 | 15.56° C | 37% | 1021.9 hPa | 0 mm | - | 734 W/m² | - |
| 1777227312 | 14.44° C | 37% | 1022.1 hPa | 0 mm | - | 741 W/m² | - |
| 1777227010 | 15° C | 39% | 1021.9 hPa | 0 mm | - | 745 W/m² | - |
| 1777226709 | 15° C | 38% | 1022 hPa | 0 mm | - | 752 W/m² | - |
| 1777226404 | 15° C | 37% | 1022 hPa | 0 mm | - | 757 W/m² | - |
| 1777226100 | 14.44° C | 43% | 1022 hPa | 0 mm | - | 762 W/m² | - |
| 1777225795 | 13.89° C | 37% | 1022 hPa | 0 mm | - | 768 W/m² | - |
| 1777225493 | 13.33° C | 44% | 1022.3 hPa | 0 mm | - | 772 W/m² | - |
| 1777225190 | 13.89° C | 37% | 1022.1 hPa | 0 mm | - | 779 W/m² | - |
| 1777224886 | 14.44° C | 39% | 1022.4 hPa | 0 mm | - | 787 W/m² | - |
| 1777224582 | 13.33° C | 44% | 1022.1 hPa | 0 mm | - | 832 W/m² | - |
* Rain latest hour (hover to see other rain measurements)
** Current wind speed in m/s (hover to see current wind gust speed)